createdAt,value
2023-03-18T00:02:03.331Z,16.45
2023-03-18T00:04:30.710Z,15.00
2023-03-18T00:06:57.814Z,15.00
2023-03-18T00:09:24.928Z,16.00
2023-03-18T00:11:52.583Z,19.00
2023-03-18T00:14:19.573Z,14.98
2023-03-18T00:16:46.436Z,13.13
2023-03-18T00:19:13.295Z,15.57
2023-03-18T00:21:40.202Z,19.13
2023-03-18T00:24:07.599Z,12.63
2023-03-18T00:26:34.498Z,14.20
2023-03-18T00:29:01.545Z,15.05
2023-03-18T00:31:30.009Z,18.33
2023-03-18T00:33:57.097Z,11.43
2023-03-18T00:36:26.375Z,15.25
2023-03-18T00:39:03.507Z,21.08
2023-03-18T00:41:33.317Z,16.38
2023-03-18T00:44:00.737Z,14.70
2023-03-18T00:46:31.574Z,15.25
2023-03-18T00:49:02.278Z,15.13
2023-03-18T00:51:31.663Z,15.52
2023-03-18T00:54:06.765Z,16.20
2023-03-18T00:59:01.517Z,17.30
2023-03-18T01:01:29.187Z,16.15
2023-03-18T01:03:56.306Z,12.50
2023-03-18T01:06:29.833Z,12.23
2023-03-18T01:08:58.761Z,11.30
2023-03-18T01:11:26.668Z,13.95
2023-03-18T01:13:54.566Z,13.60
2023-03-18T01:16:22.655Z,16.60
2023-03-18T01:18:50.137Z,13.07
2023-03-18T01:21:18.226Z,13.90
2023-03-18T01:23:45.718Z,11.07
2023-03-18T01:26:12.723Z,13.73
2023-03-18T01:28:40.314Z,14.80
2023-03-18T01:31:08.310Z,18.10
2023-03-18T01:33:37.094Z,13.00
2023-03-18T01:36:05.706Z,14.05
2023-03-18T01:38:33.204Z,11.85
2023-03-18T01:41:01.277Z,14.52
2023-03-18T01:43:35.585Z,14.63
2023-03-18T01:46:35.604Z,15.38
2023-03-18T01:49:49.389Z,13.65
2023-03-18T01:52:27.299Z,10.93
2023-03-18T01:55:07.591Z,17.25
2023-03-18T01:57:36.064Z,14.93
2023-03-18T02:00:05.675Z,13.10
2023-03-18T02:02:34.110Z,17.35
2023-03-18T02:05:06.802Z,17.52
2023-03-18T02:07:36.157Z,18.10
2023-03-18T02:10:13.479Z,16.73
2023-03-18T02:12:47.082Z,12.30
2023-03-18T02:15:19.985Z,20.77
2023-03-18T02:17:55.570Z,15.32
2023-03-18T02:20:39.994Z,14.82
2023-03-18T02:23:25.875Z,17.58
2023-03-18T02:26:25.667Z,16.45
2023-03-18T02:28:57.673Z,13.95
2023-03-18T02:31:25.012Z,14.88
2023-03-18T02:33:52.202Z,16.70
2023-03-18T02:36:25.538Z,13.82
2023-03-18T02:38:52.339Z,12.80
2023-03-18T02:41:25.032Z,15.38
2023-03-18T02:43:52.418Z,13.05
2023-03-18T02:46:36.670Z,13.40
2023-03-18T02:49:07.814Z,14.68
2023-03-18T02:51:37.366Z,15.25
2023-03-18T02:54:15.157Z,13.45
2023-03-18T02:56:43.794Z,16.00
2023-03-18T02:59:11.927Z,14.70
2023-03-18T03:01:40.831Z,20.05
2023-03-18T03:04:08.249Z,13.00
2023-03-18T03:06:36.216Z,18.80
2023-03-18T03:09:05.982Z,15.82
2023-03-18T03:11:33.207Z,13.63
2023-03-18T03:14:00.373Z,13.68
2023-03-18T03:16:28.378Z,17.15
2023-03-18T03:18:55.711Z,17.42
2023-03-18T03:21:22.622Z,16.58
2023-03-18T03:23:49.941Z,16.75
2023-03-18T03:26:17.902Z,20.90
2023-03-18T03:28:45.067Z,16.08
2023-03-18T03:31:12.031Z,19.98
2023-03-18T03:33:41.950Z,15.35
2023-03-18T03:36:15.260Z,21.50
2023-03-18T03:38:42.514Z,20.80
2023-03-18T03:41:11.742Z,14.88
2023-03-18T03:43:43.915Z,16.85
2023-03-18T03:46:12.098Z,20.02
2023-03-18T03:48:39.833Z,18.13
2023-03-18T03:51:07.668Z,18.75
2023-03-18T03:53:36.201Z,21.42
2023-03-18T03:56:05.368Z,18.60
2023-03-18T03:58:32.195Z,13.60
2023-03-18T04:00:59.953Z,14.93
2023-03-18T04:03:28.650Z,13.05
2023-03-18T04:05:56.545Z,22.33
2023-03-18T04:08:23.412Z,11.90
2023-03-18T04:10:50.325Z,19.13
2023-03-18T04:13:17.170Z,13.15
2023-03-18T04:15:44.046Z,12.50
2023-03-18T04:18:10.961Z,18.10
2023-03-18T04:20:38.873Z,14.98
2023-03-18T04:23:06.147Z,18.73
2023-03-18T04:25:33.366Z,14.73
2023-03-18T04:28:00.246Z,19.58
2023-03-18T04:30:27.620Z,19.50
2023-03-18T04:32:55.151Z,13.45
2023-03-18T04:35:23.563Z,12.20
2023-03-18T04:37:50.802Z,14.15
2023-03-18T04:40:18.500Z,15.60
2023-03-18T04:42:47.896Z,20.00
2023-03-18T04:45:16.512Z,15.48
2023-03-18T04:47:45.400Z,14.63
2023-03-18T04:50:14.195Z,23.40
2023-03-18T04:52:42.906Z,18.95
2023-03-18T04:55:11.029Z,21.73
2023-03-18T04:57:38.867Z,20.98
2023-03-18T05:00:12.577Z,14.77
2023-03-18T05:02:40.215Z,18.63
2023-03-18T05:05:08.113Z,15.38
2023-03-18T05:07:35.381Z,13.68
2023-03-18T05:10:04.602Z,18.05
2023-03-18T05:12:31.633Z,15.20
2023-03-18T05:14:58.735Z,11.15
2023-03-18T05:17:25.691Z,13.85
2023-03-18T05:19:52.632Z,16.02
2023-03-18T05:22:21.445Z,14.30
2023-03-18T05:24:50.050Z,12.93
2023-03-18T05:27:19.252Z,10.90
2023-03-18T05:29:46.648Z,15.32
2023-03-18T05:32:14.957Z,14.73
2023-03-18T05:34:43.076Z,14.80
2023-03-18T05:37:13.391Z,14.43
2023-03-18T05:39:40.958Z,12.00
2023-03-18T05:42:09.406Z,17.65
2023-03-18T05:44:36.297Z,12.38
2023-03-18T05:47:03.147Z,17.75
2023-03-18T05:49:30.401Z,14.00
2023-03-18T05:51:57.269Z,15.82
2023-03-18T05:54:24.281Z,20.35
2023-03-18T05:56:52.927Z,15.30
2023-03-18T05:59:22.190Z,16.35
2023-03-18T06:01:49.307Z,14.98
2023-03-18T06:04:17.452Z,14.30
2023-03-18T06:06:44.242Z,13.85
2023-03-18T06:09:14.056Z,16.27
2023-03-18T06:11:41.397Z,16.25
2023-03-18T06:14:08.928Z,17.48
2023-03-18T06:16:36.745Z,13.00
2023-03-18T06:19:05.058Z,15.27
2023-03-18T06:21:33.251Z,17.80
2023-03-18T06:24:02.038Z,15.13
2023-03-18T06:26:29.348Z,12.52
2023-03-18T06:28:58.550Z,10.50
2023-03-18T06:31:26.186Z,13.52
2023-03-18T06:33:53.471Z,13.27
2023-03-18T06:36:21.924Z,12.77
2023-03-18T06:38:49.094Z,12.93
2023-03-18T06:41:16.525Z,14.38
2023-03-18T06:43:43.524Z,18.00
2023-03-18T06:46:10.846Z,18.20
2023-03-18T06:48:40.599Z,18.05
2023-03-18T06:51:08.042Z,13.68
2023-03-18T06:53:36.545Z,16.75
2023-03-18T06:56:08.060Z,18.20
2023-03-18T06:58:34.835Z,14.27
2023-03-18T07:01:01.789Z,14.45
2023-03-18T07:03:28.622Z,16.33
2023-03-18T07:05:56.223Z,17.73
2023-03-18T07:08:23.617Z,11.68
2023-03-18T07:10:54.760Z,19.27
2023-03-18T07:13:23.209Z,17.00
2023-03-18T07:15:50.133Z,17.38
2023-03-18T07:18:17.450Z,15.15
2023-03-18T07:20:44.247Z,15.75
2023-03-18T07:23:11.498Z,19.63
2023-03-18T07:25:38.881Z,17.00
2023-03-18T07:28:05.915Z,15.63
2023-03-18T07:30:34.118Z,18.70
2023-03-18T07:33:01.437Z,14.90
2023-03-18T07:35:28.924Z,20.50
2023-03-18T07:37:55.767Z,14.93
2023-03-18T07:40:22.971Z,16.83
2023-03-18T07:42:51.765Z,14.35
2023-03-18T07:45:18.629Z,16.90
2023-03-18T07:47:47.234Z,17.45
2023-03-18T07:50:14.547Z,15.23
2023-03-18T07:52:42.096Z,16.83
2023-03-18T07:55:12.325Z,22.50
2023-03-18T07:57:39.565Z,15.90
2023-03-18T08:00:09.019Z,17.20
2023-03-18T08:02:36.491Z,12.93
2023-03-18T08:05:04.512Z,13.60
2023-03-18T08:07:31.667Z,12.45
2023-03-18T08:09:58.510Z,14.43
2023-03-18T08:12:26.296Z,15.93
2023-03-18T08:14:53.192Z,13.00
2023-03-18T08:17:20.670Z,13.90
2023-03-18T08:19:49.115Z,14.45
2023-03-18T08:22:16.144Z,13.20
2023-03-18T08:24:45.451Z,13.13
2023-03-18T08:27:12.404Z,13.20
2023-03-18T08:29:39.959Z,11.13
2023-03-18T08:32:07.898Z,11.30
2023-03-18T08:34:36.013Z,12.52
2023-03-18T08:37:03.402Z,7.95
2023-03-18T08:39:30.170Z,11.27
2023-03-18T08:41:56.925Z,13.10
2023-03-18T08:44:23.724Z,9.02
2023-03-18T08:46:50.745Z,10.27
2023-03-18T08:49:17.802Z,13.07
2023-03-18T08:51:45.083Z,14.80
2023-03-18T08:54:12.167Z,10.93
2023-03-18T08:56:39.081Z,10.95
2023-03-18T08:59:05.985Z,15.85
2023-03-18T09:01:33.173Z,12.18
2023-03-18T09:04:00.157Z,8.48
2023-03-18T09:06:28.113Z,11.32
2023-03-18T09:08:55.062Z,9.63
2023-03-18T09:11:22.247Z,7.25
2023-03-18T09:13:49.031Z,10.77
2023-03-18T09:16:16.178Z,9.38
2023-03-18T09:18:45.242Z,10.10
2023-03-18T09:21:12.793Z,10.25
2023-03-18T09:23:39.873Z,10.07
2023-03-18T09:26:06.623Z,8.05
2023-03-18T09:28:33.454Z,8.40
2023-03-18T09:31:00.758Z,8.70
2023-03-18T09:33:27.659Z,6.85
2023-03-18T09:35:55.320Z,9.77
2023-03-18T09:38:22.599Z,9.02
2023-03-18T09:41:01.227Z,7.03
2023-03-18T09:43:52.874Z,7.03
2023-03-18T09:46:25.672Z,7.07
2023-03-18T09:49:44.054Z,7.57
2023-03-18T09:52:27.724Z,8.50
2023-03-18T09:55:03.755Z,7.20
2023-03-18T09:57:45.173Z,7.70
2023-03-18T10:00:37.070Z,8.95
2023-03-18T10:03:11.257Z,7.60
2023-03-18T10:05:56.969Z,7.03
2023-03-18T10:08:42.083Z,4.90
2023-03-18T10:11:26.485Z,4.15
2023-03-18T10:14:30.470Z,6.28
2023-03-18T10:17:26.325Z,5.22
2023-03-18T10:22:54.432Z,4.13
2023-03-18T10:25:50.125Z,4.80
2023-03-18T10:28:44.459Z,4.25
2023-03-18T10:31:32.249Z,4.32
2023-03-18T10:34:02.479Z,5.82
2023-03-18T10:36:44.007Z,5.05
2023-03-18T10:39:18.716Z,3.97
2023-03-18T10:41:50.331Z,3.25
2023-03-18T10:44:31.162Z,4.45
2023-03-18T10:47:10.327Z,3.28
2023-03-18T10:49:43.045Z,4.95
2023-03-18T10:52:39.743Z,4.43
2023-03-18T10:55:16.757Z,8.77
2023-03-18T10:57:43.810Z,6.97
2023-03-18T11:00:29.921Z,6.35
2023-03-18T11:02:57.529Z,5.93
2023-03-18T11:05:34.129Z,6.85
2023-03-18T11:08:07.581Z,4.85
2023-03-18T11:10:43.889Z,5.95
2023-03-18T11:13:18.052Z,7.70
2023-03-18T11:15:55.054Z,5.22
2023-03-18T11:18:25.732Z,7.65
2023-03-18T11:21:04.928Z,7.05
2023-03-18T11:23:49.322Z,4.80
2023-03-18T11:26:29.275Z,5.35
2023-03-18T11:29:05.855Z,3.90
2023-03-18T11:31:32.889Z,8.18
2023-03-18T11:34:00.740Z,4.90
2023-03-18T11:36:28.846Z,7.18
2023-03-18T11:39:04.156Z,5.47
2023-03-18T11:41:31.050Z,4.82
2023-03-18T11:44:18.221Z,5.05
2023-03-18T11:47:01.402Z,5.32
2023-03-18T11:49:29.640Z,6.47
2023-03-18T11:52:53.315Z,9.55
2023-03-18T11:55:39.654Z,10.55
2023-03-18T11:58:46.890Z,4.38
2023-03-18T12:01:43.010Z,4.78
2023-03-18T12:04:37.766Z,9.38
2023-03-18T12:07:23.722Z,7.15
2023-03-18T12:10:30.723Z,7.50
2023-03-18T12:13:39.606Z,6.55
2023-03-18T12:16:43.492Z,6.07
2023-03-18T12:19:38.272Z,6.82
2023-03-18T12:22:17.678Z,4.95
2023-03-18T12:25:09.305Z,7.05
2023-03-18T12:27:52.626Z,7.25
2023-03-18T12:30:53.624Z,7.72
2023-03-18T12:33:47.857Z,5.18
2023-03-18T12:36:24.743Z,5.50
2023-03-18T12:39:04.276Z,8.07
2023-03-18T12:42:07.063Z,7.75
2023-03-18T12:44:42.898Z,6.07
2023-03-18T12:47:37.053Z,9.32
2023-03-18T12:50:25.571Z,9.63
2023-03-18T12:53:02.855Z,8.77
2023-03-18T12:55:39.643Z,8.57
2023-03-18T12:58:17.579Z,6.10
2023-03-18T13:01:07.283Z,9.35
2023-03-18T13:03:41.181Z,5.63
2023-03-18T13:07:16.054Z,7.57
2023-03-18T13:10:09.034Z,6.50
2023-03-18T13:12:40.568Z,7.85
2023-03-18T13:15:33.369Z,5.65
2023-03-18T13:18:12.748Z,10.10
2023-03-18T13:20:42.012Z,5.15
2023-03-18T13:23:35.022Z,4.90
2023-03-18T13:26:24.409Z,5.85
2023-03-18T13:29:18.645Z,5.00
2023-03-18T13:32:17.443Z,4.40
2023-03-18T13:34:53.053Z,3.38
2023-03-18T13:38:16.865Z,3.22
2023-03-18T13:41:32.634Z,4.28
2023-03-18T13:44:07.087Z,3.43
2023-03-18T13:46:35.198Z,3.35
2023-03-18T13:49:03.084Z,3.45
2023-03-18T13:51:29.830Z,5.25
2023-03-18T13:54:02.299Z,3.92
2023-03-18T13:56:33.723Z,4.93
2023-03-18T13:59:08.132Z,4.28
2023-03-18T14:01:48.710Z,3.85
2023-03-18T14:04:41.659Z,4.43
2023-03-18T14:07:23.989Z,6.45
2023-03-18T14:10:18.260Z,6.85
2023-03-18T14:12:48.073Z,6.18
2023-03-18T14:15:15.199Z,4.40
2023-03-18T14:17:48.180Z,4.68
2023-03-18T14:20:18.080Z,6.13
2023-03-18T14:22:51.375Z,5.30
2023-03-18T14:25:18.078Z,4.15
2023-03-18T14:27:51.417Z,5.10
2023-03-18T14:30:46.957Z,3.90
2023-03-18T14:33:20.273Z,5.88
2023-03-18T14:36:21.574Z,5.38
2023-03-18T14:39:07.239Z,6.50
2023-03-18T14:41:42.579Z,5.43
2023-03-18T14:44:27.760Z,4.57
2023-03-18T14:47:04.206Z,6.57
2023-03-18T14:49:59.917Z,6.85
2023-03-18T14:52:34.842Z,4.40
2023-03-18T14:55:08.013Z,8.05
2023-03-18T14:57:34.788Z,5.85
2023-03-18T15:00:02.229Z,10.43
2023-03-18T15:02:35.220Z,5.18
2023-03-18T15:05:02.993Z,4.22
2023-03-18T15:07:40.215Z,6.05
2023-03-18T15:10:13.471Z,7.38
2023-03-18T15:12:40.580Z,5.47
2023-03-18T15:15:14.748Z,4.55
2023-03-18T15:17:49.304Z,5.15
2023-03-18T15:20:17.070Z,4.35
2023-03-18T15:22:44.732Z,5.03
2023-03-18T15:25:20.791Z,5.70
2023-03-18T15:27:48.501Z,4.25
2023-03-18T15:30:31.754Z,3.60
2023-03-18T15:33:18.904Z,3.75
2023-03-18T15:35:46.496Z,2.55
2023-03-18T15:38:19.813Z,2.20
2023-03-18T15:41:01.619Z,3.80
2023-03-18T15:43:42.770Z,1.58
2023-03-18T15:46:15.767Z,3.47
2023-03-18T15:48:54.789Z,1.88
2023-03-18T15:51:35.192Z,4.68
2023-03-18T15:54:30.028Z,2.33
2023-03-18T15:56:59.598Z,2.33
2023-03-18T15:59:30.072Z,1.40
2023-03-18T16:01:58.988Z,3.00
2023-03-18T16:04:32.879Z,5.47
2023-03-18T16:06:59.852Z,8.85
2023-03-18T16:09:27.185Z,3.30
2023-03-18T16:12:13.333Z,4.97
2023-03-18T16:14:44.052Z,4.40
2023-03-18T16:17:14.031Z,2.35
2023-03-18T16:19:40.994Z,3.40
2023-03-18T16:22:09.126Z,5.18
2023-03-18T16:24:37.006Z,6.10
2023-03-18T16:27:06.178Z,4.82
2023-03-18T16:29:38.314Z,3.17
2023-03-18T16:32:06.689Z,2.45
2023-03-18T16:34:33.566Z,2.65
2023-03-18T16:37:00.422Z,2.78
2023-03-18T16:39:34.440Z,2.97
2023-03-18T16:42:04.382Z,5.35
2023-03-18T16:44:34.561Z,3.92
2023-03-18T16:47:02.741Z,3.97
2023-03-18T16:49:37.042Z,4.82
2023-03-18T16:52:04.004Z,3.70
2023-03-18T16:54:33.873Z,7.97
2023-03-18T16:57:04.514Z,6.28
2023-03-18T16:59:37.727Z,3.50
2023-03-18T17:02:05.846Z,2.67
2023-03-18T17:04:35.309Z,3.72
2023-03-18T17:07:04.951Z,3.13
2023-03-18T17:09:32.468Z,4.03
2023-03-18T17:12:04.974Z,5.22
2023-03-18T17:14:40.393Z,38.20
2023-03-18T17:17:31.149Z,28.45
2023-03-18T17:19:59.800Z,10.07
2023-03-18T17:22:33.449Z,7.03
2023-03-18T17:25:01.759Z,5.07
2023-03-18T17:27:45.203Z,7.35
2023-03-18T17:30:37.771Z,9.50
2023-03-18T17:33:27.318Z,8.48
2023-03-18T17:35:54.902Z,6.72
2023-03-18T17:38:22.265Z,6.45
2023-03-18T17:40:50.555Z,6.32
2023-03-18T17:43:29.805Z,9.40
2023-03-18T17:45:58.139Z,11.25
2023-03-18T17:48:28.630Z,7.75
2023-03-18T17:50:59.836Z,7.07
2023-03-18T17:53:29.024Z,14.07
2023-03-18T17:55:56.998Z,13.10
2023-03-18T17:58:28.505Z,12.25
2023-03-18T18:01:03.739Z,10.68
2023-03-18T18:03:30.999Z,9.60
2023-03-18T18:05:59.313Z,10.27
2023-03-18T18:08:28.443Z,9.18
2023-03-18T18:11:22.993Z,8.45
2023-03-18T18:13:52.311Z,7.88
2023-03-18T18:16:19.974Z,7.63
2023-03-18T18:18:49.621Z,6.65
2023-03-18T18:21:20.108Z,6.78
2023-03-18T18:23:48.814Z,8.48
2023-03-18T18:26:19.860Z,6.93
2023-03-18T18:28:51.249Z,8.15
2023-03-18T18:31:20.664Z,7.13
2023-03-18T18:33:50.238Z,7.07
2023-03-18T18:36:18.326Z,11.10
2023-03-18T18:38:45.501Z,8.30
2023-03-18T18:41:12.755Z,7.68
2023-03-18T18:43:39.660Z,12.27
2023-03-18T18:46:15.690Z,12.38
2023-03-18T18:48:48.233Z,12.52
2023-03-18T18:51:19.425Z,10.88
2023-03-18T18:53:46.762Z,10.55
2023-03-18T18:56:23.715Z,8.35
2023-03-18T18:58:52.248Z,7.60
2023-03-18T19:01:19.973Z,8.73
2023-03-18T19:03:48.371Z,7.95
2023-03-18T19:06:26.167Z,6.28
2023-03-18T19:08:56.853Z,7.30
2023-03-18T19:11:27.526Z,8.43
2023-03-18T19:13:55.470Z,9.80
2023-03-18T19:16:34.049Z,11.60
2023-03-18T19:19:01.324Z,7.30
2023-03-18T19:21:28.778Z,7.00
2023-03-18T19:23:55.614Z,9.80
2023-03-18T19:26:22.665Z,10.30
2023-03-18T19:28:59.393Z,12.18
2023-03-18T19:31:32.400Z,9.25
2023-03-18T19:34:00.697Z,8.63
2023-03-18T19:36:39.730Z,11.35
2023-03-18T19:39:16.151Z,8.98
2023-03-18T19:41:44.394Z,10.55
2023-03-18T19:44:25.194Z,15.10
2023-03-18T19:46:55.358Z,16.17
2023-03-18T19:49:32.870Z,28.58
2023-03-18T19:52:00.259Z,14.27
2023-03-18T19:54:37.068Z,11.77
2023-03-18T19:57:24.576Z,2.42
2023-03-18T19:59:53.964Z,3.05
2023-03-18T20:02:23.671Z,2.25
2023-03-18T20:04:53.010Z,3.08
2023-03-18T20:07:23.343Z,5.78
2023-03-18T20:09:50.854Z,9.27
2023-03-18T20:12:34.567Z,18.00
2023-03-18T20:15:01.373Z,35.13
2023-03-18T20:17:39.897Z,17.52
2023-03-18T20:20:13.490Z,10.65
2023-03-18T20:22:47.911Z,7.65
2023-03-18T20:25:41.280Z,17.00
2023-03-18T20:28:15.150Z,18.63
2023-03-18T20:30:42.479Z,7.00
2023-03-18T20:33:12.604Z,9.32
2023-03-18T20:35:44.289Z,6.80
2023-03-18T20:38:30.452Z,10.35
2023-03-18T20:40:57.957Z,4.95
2023-03-18T20:43:28.452Z,7.28
2023-03-18T20:45:57.935Z,12.65
2023-03-18T20:48:25.319Z,11.10
2023-03-18T20:50:52.814Z,8.82
2023-03-18T20:53:25.769Z,9.57
2023-03-18T20:55:53.210Z,12.20
2023-03-18T20:58:24.251Z,10.57
2023-03-18T21:00:52.588Z,12.25
2023-03-18T21:03:32.414Z,12.55
2023-03-18T21:06:01.819Z,12.60
2023-03-18T21:08:29.496Z,10.52
2023-03-18T21:11:01.712Z,8.23
2023-03-18T21:13:39.115Z,12.68
2023-03-18T21:16:13.157Z,7.45
2023-03-18T21:18:42.206Z,8.07
2023-03-18T21:21:20.578Z,10.85
2023-03-18T21:23:48.114Z,10.18
2023-03-18T21:26:15.357Z,10.60
2023-03-18T21:28:42.226Z,11.50
2023-03-18T21:31:36.146Z,8.60
2023-03-18T21:34:04.175Z,12.70
2023-03-18T21:36:31.228Z,14.05
2023-03-18T21:38:58.021Z,15.95
2023-03-18T21:41:29.388Z,11.90
2023-03-18T21:43:56.500Z,11.00
2023-03-18T21:46:27.188Z,11.48
2023-03-18T21:48:54.390Z,15.00
2023-03-18T21:51:38.720Z,14.07
2023-03-18T21:56:38.407Z,10.38
2023-03-18T21:59:05.192Z,18.15
2023-03-18T22:01:32.595Z,15.80
2023-03-18T22:03:59.767Z,11.48
2023-03-18T22:06:26.925Z,17.67
2023-03-18T22:08:53.710Z,19.55
2023-03-18T22:11:22.667Z,17.33
2023-03-18T22:13:50.200Z,17.45
2023-03-18T22:16:18.991Z,15.82
2023-03-18T22:18:49.315Z,12.10
2023-03-18T22:21:27.721Z,14.07
2023-03-18T22:23:55.735Z,14.00
2023-03-18T22:26:22.826Z,19.83
2023-03-18T22:28:50.764Z,11.80
2023-03-18T22:31:26.931Z,17.17
2023-03-18T22:33:54.542Z,16.85
2023-03-18T22:36:25.675Z,11.65
2023-03-18T22:38:52.941Z,17.63
2023-03-18T22:41:29.612Z,15.35
2023-03-18T22:43:58.081Z,14.02
2023-03-18T22:46:25.304Z,11.25
2023-03-18T22:48:52.146Z,14.05
2023-03-18T22:51:28.081Z,11.70
2023-03-18T22:53:55.816Z,17.13
2023-03-18T22:56:23.485Z,11.48
2023-03-18T22:58:50.703Z,14.60
2023-03-18T23:01:21.069Z,20.30
2023-03-18T23:03:48.286Z,15.20
2023-03-18T23:06:20.265Z,13.95
2023-03-18T23:08:47.887Z,16.63
2023-03-18T23:11:16.665Z,12.57
2023-03-18T23:13:47.947Z,13.82
2023-03-18T23:16:23.330Z,16.55
2023-03-18T23:18:51.716Z,12.00
2023-03-18T23:21:24.348Z,17.60
2023-03-18T23:23:52.677Z,11.57
2023-03-18T23:26:20.513Z,11.23
2023-03-18T23:28:48.823Z,12.43
2023-03-18T23:31:16.316Z,12.52
2023-03-18T23:33:43.704Z,10.90
2023-03-18T23:36:11.969Z,11.93
2023-03-18T23:38:39.107Z,12.27
2023-03-18T23:41:07.328Z,8.60
2023-03-18T23:43:34.591Z,14.25
2023-03-18T23:46:02.373Z,11.90
2023-03-18T23:48:29.318Z,13.93
2023-03-18T23:50:56.594Z,11.52
2023-03-18T23:53:23.455Z,12.50
2023-03-18T23:55:50.481Z,9.73
2023-03-18T23:58:17.863Z,15.20
